createdAt,value
2023-05-14T00:03:50.861Z,5.03
2023-05-14T00:08:44.274Z,5.18
2023-05-14T00:13:37.807Z,2.70
2023-05-14T00:18:31.884Z,2.88
2023-05-14T00:23:25.693Z,3.42
2023-05-14T00:28:18.639Z,3.42
2023-05-14T00:33:11.395Z,4.95
2023-05-14T00:38:04.145Z,2.17
2023-05-14T00:42:58.483Z,8.73
2023-05-14T00:47:51.374Z,2.00
2023-05-14T00:52:45.517Z,3.92
2023-05-14T00:57:38.271Z,2.30
2023-05-14T01:02:32.072Z,3.50
2023-05-14T01:08:01.883Z,3.58
2023-05-14T01:13:21.184Z,4.57
2023-05-14T01:18:17.555Z,2.90
2023-05-14T01:23:10.685Z,3.30
2023-05-14T01:28:30.104Z,3.15
2023-05-14T01:33:26.871Z,3.20
2023-05-14T01:38:20.702Z,2.67
2023-05-14T01:43:15.962Z,5.00
2023-05-14T01:48:09.125Z,2.40
2023-05-14T01:53:02.496Z,2.15
2023-05-14T01:57:55.057Z,2.33
2023-05-14T02:02:46.829Z,5.35
2023-05-14T02:07:41.471Z,2.65
2023-05-14T02:12:34.928Z,3.80
2023-05-14T02:17:28.626Z,4.60
2023-05-14T02:22:21.317Z,3.03
2023-05-14T02:27:14.053Z,4.22
2023-05-14T02:32:09.239Z,3.00
2023-05-14T02:37:02.436Z,1.77
2023-05-14T02:41:57.940Z,1.38
2023-05-14T02:46:51.115Z,1.65
2023-05-14T02:51:44.961Z,3.85
2023-05-14T02:56:38.106Z,2.15
2023-05-14T03:01:30.874Z,1.80
2023-05-14T03:06:23.691Z,2.67
2023-05-14T03:11:16.724Z,1.52
2023-05-14T03:16:10.512Z,2.08
2023-05-14T03:21:05.663Z,2.50
2023-05-14T03:25:58.096Z,1.52
2023-05-14T03:30:51.841Z,2.25
2023-05-14T03:35:45.707Z,1.23
2023-05-14T03:40:38.428Z,1.98
2023-05-14T03:45:31.917Z,2.20
2023-05-14T03:50:26.116Z,1.92
2023-05-14T03:55:22.261Z,2.13
2023-05-14T04:00:16.097Z,3.28
2023-05-14T04:05:11.051Z,3.13
2023-05-14T04:10:04.763Z,2.40
2023-05-14T04:15:00.409Z,1.70
2023-05-14T04:19:53.769Z,1.73
2023-05-14T04:24:50.243Z,1.58
2023-05-14T04:29:42.998Z,1.92
2023-05-14T04:34:35.631Z,2.55
2023-05-14T04:39:27.828Z,2.47
2023-05-14T04:44:21.273Z,1.85
2023-05-14T04:49:15.126Z,2.78
2023-05-14T04:54:08.910Z,1.15
2023-05-14T04:59:01.448Z,1.88
2023-05-14T05:03:54.916Z,1.13
2023-05-14T05:08:47.566Z,2.00
2023-05-14T05:13:41.105Z,1.15
2023-05-14T05:18:33.818Z,0.80
2023-05-14T05:23:26.468Z,1.00
2023-05-14T05:28:20.368Z,1.67
2023-05-14T05:33:13.686Z,1.27
2023-05-14T05:38:06.648Z,1.45
2023-05-14T05:43:00.900Z,1.20
2023-05-14T05:47:55.016Z,1.85
2023-05-14T05:52:49.021Z,1.88
2023-05-14T05:57:43.313Z,2.50
2023-05-14T06:02:37.795Z,0.95
2023-05-14T06:07:31.635Z,2.05
2023-05-14T06:12:24.254Z,2.17
2023-05-14T06:17:16.574Z,1.17
2023-05-14T06:22:10.001Z,2.95
2023-05-14T06:27:04.312Z,4.25
2023-05-14T06:32:03.441Z,5.25
2023-05-14T06:36:56.153Z,2.85
2023-05-14T06:41:50.242Z,9.07
2023-05-14T06:46:44.785Z,2.38
2023-05-14T06:51:39.073Z,4.20
2023-05-14T06:56:32.616Z,5.35
2023-05-14T07:01:25.688Z,2.42
2023-05-14T07:06:18.548Z,1.80
2023-05-14T07:11:13.220Z,2.33
2023-05-14T07:16:11.970Z,1.73
2023-05-14T07:21:07.833Z,1.90
2023-05-14T07:26:01.761Z,1.60
2023-05-14T07:30:54.668Z,3.95
2023-05-14T07:35:48.717Z,6.25
2023-05-14T07:40:42.026Z,4.07
2023-05-14T07:45:34.991Z,8.63
2023-05-14T07:50:27.214Z,6.47
2023-05-14T07:55:21.921Z,14.45
2023-05-14T08:00:15.032Z,2.90
2023-05-14T08:05:10.032Z,5.63
2023-05-14T08:10:03.160Z,1.17
2023-05-14T08:14:56.705Z,4.35
2023-05-14T08:19:50.296Z,8.25
2023-05-14T08:24:43.867Z,6.38
2023-05-14T08:29:37.472Z,10.55
2023-05-14T08:34:31.368Z,11.45
2023-05-14T08:39:24.982Z,18.75
2023-05-14T08:44:26.410Z,12.88
2023-05-14T08:49:45.362Z,9.93
2023-05-14T08:54:38.549Z,12.48
2023-05-14T08:59:31.313Z,11.30
2023-05-14T09:04:25.166Z,18.70
2023-05-14T09:09:19.709Z,17.73
2023-05-14T09:14:12.993Z,16.27
2023-05-14T09:19:07.649Z,14.05
2023-05-14T09:24:00.320Z,12.32
2023-05-14T09:28:58.144Z,11.15
2023-05-14T09:33:54.080Z,7.63
2023-05-14T09:38:47.495Z,7.35
2023-05-14T09:43:40.114Z,7.43
2023-05-14T09:48:33.691Z,9.70
2023-05-14T09:53:26.867Z,10.70
2023-05-14T09:58:20.751Z,5.03
2023-05-14T10:03:17.997Z,5.20
2023-05-14T10:08:24.403Z,4.30
2023-05-14T10:13:24.874Z,4.43
2023-05-14T10:18:20.157Z,3.72
2023-05-14T10:23:13.978Z,4.90
2023-05-14T10:28:07.811Z,2.72
2023-05-14T10:33:13.882Z,3.35
2023-05-14T10:38:09.738Z,3.10
2023-05-14T10:43:04.899Z,4.38
2023-05-14T10:47:58.258Z,4.43
2023-05-14T10:52:51.787Z,2.08
2023-05-14T10:57:47.061Z,2.83
2023-05-14T11:02:40.856Z,3.33
2023-05-14T11:07:36.500Z,4.88
2023-05-14T11:12:29.140Z,2.90
2023-05-14T11:17:21.884Z,1.85
2023-05-14T11:22:15.392Z,1.95
2023-05-14T11:27:29.157Z,2.42
2023-05-14T11:32:22.943Z,1.60
2023-05-14T11:37:17.204Z,1.27
2023-05-14T11:42:13.038Z,6.00
2023-05-14T11:47:07.485Z,1.95
2023-05-14T11:52:02.638Z,3.17
2023-05-14T11:56:56.625Z,1.77
2023-05-14T12:01:50.818Z,1.65
2023-05-14T12:06:43.859Z,5.70
2023-05-14T12:11:37.827Z,308.75
2023-05-14T12:16:33.984Z,241.60
2023-05-14T12:21:30.629Z,197.60
2023-05-14T12:26:24.436Z,177.05
2023-05-14T12:31:18.266Z,130.98
2023-05-14T12:36:21.435Z,109.78
2023-05-14T12:41:15.520Z,101.10
2023-05-14T12:46:08.476Z,90.80
2023-05-14T12:51:01.331Z,84.88
2023-05-14T12:55:55.757Z,80.18
2023-05-14T13:00:49.027Z,71.72
2023-05-14T13:05:42.564Z,78.35
2023-05-14T13:10:35.127Z,65.32
2023-05-14T13:15:28.026Z,70.53
2023-05-14T13:20:20.390Z,61.30
2023-05-14T13:25:14.504Z,63.85
2023-05-14T13:30:10.807Z,60.70
2023-05-14T13:35:05.691Z,59.78
2023-05-14T13:39:58.286Z,51.83
2023-05-14T13:44:50.795Z,54.78
2023-05-14T13:49:44.279Z,51.95
2023-05-14T13:54:37.330Z,54.85
2023-05-14T13:59:29.795Z,42.47
2023-05-14T14:04:23.360Z,48.45
2023-05-14T14:09:16.792Z,48.38
2023-05-14T14:14:11.643Z,43.30
2023-05-14T14:19:06.021Z,49.58
2023-05-14T14:23:59.773Z,39.95
2023-05-14T14:28:53.253Z,40.42
2023-05-14T14:33:47.227Z,40.30
2023-05-14T14:38:40.100Z,39.45
2023-05-14T14:43:34.319Z,36.25
2023-05-14T14:48:35.372Z,42.30
2023-05-14T14:53:28.944Z,32.88
2023-05-14T14:58:21.635Z,33.70
2023-05-14T15:03:16.636Z,36.13
2023-05-14T15:08:09.751Z,28.65
2023-05-14T15:13:03.899Z,32.28
2023-05-14T15:17:57.308Z,37.60
2023-05-14T15:22:55.412Z,29.27
2023-05-14T15:27:48.508Z,30.08
2023-05-14T15:32:42.407Z,33.22
2023-05-14T15:37:44.305Z,32.40
2023-05-14T15:42:38.031Z,32.33
2023-05-14T15:47:31.971Z,29.88
2023-05-14T15:52:24.978Z,29.00
2023-05-14T15:57:19.744Z,34.55
2023-05-14T16:02:13.204Z,30.70
2023-05-14T16:07:11.418Z,31.60
2023-05-14T16:12:04.808Z,25.35
2023-05-14T16:16:58.211Z,27.58
2023-05-14T16:21:51.275Z,25.70
2023-05-14T16:26:44.148Z,24.58
2023-05-14T16:31:37.072Z,27.02
2023-05-14T16:36:30.127Z,22.70
2023-05-14T16:41:23.257Z,20.85
2023-05-14T16:46:17.860Z,28.85
2023-05-14T16:51:11.322Z,28.83
2023-05-14T16:56:04.481Z,21.55
2023-05-14T17:00:57.579Z,30.83
2023-05-14T17:05:50.113Z,68.82
2023-05-14T17:10:44.101Z,68.65
2023-05-14T17:15:38.235Z,72.93
2023-05-14T17:20:31.531Z,79.38
2023-05-14T17:25:27.700Z,64.40
2023-05-14T17:30:20.687Z,69.22
2023-05-14T17:35:14.322Z,66.20
2023-05-14T17:40:09.331Z,64.93
2023-05-14T17:45:02.893Z,55.10
2023-05-14T17:49:56.633Z,54.17
2023-05-14T17:54:50.105Z,42.50
2023-05-14T17:59:43.027Z,45.95
2023-05-14T18:04:36.449Z,39.58
2023-05-14T18:09:29.186Z,37.75
2023-05-14T18:14:22.632Z,40.00
2023-05-14T18:19:16.431Z,41.90
2023-05-14T18:24:11.050Z,38.47
2023-05-14T18:29:03.527Z,33.42
2023-05-14T18:33:56.573Z,39.92
2023-05-14T18:38:49.694Z,36.97
2023-05-14T18:43:43.222Z,38.00
2023-05-14T18:48:36.752Z,36.20
2023-05-14T18:53:30.002Z,33.03
2023-05-14T18:58:23.092Z,29.25
2023-05-14T19:03:16.382Z,24.30
2023-05-14T19:08:09.877Z,26.00
2023-05-14T19:13:04.998Z,23.98
2023-05-14T19:17:57.913Z,24.95
2023-05-14T19:22:52.721Z,22.92
2023-05-14T19:27:48.186Z,23.45
2023-05-14T19:32:41.326Z,27.17
2023-05-14T19:37:34.913Z,21.13
2023-05-14T19:42:29.313Z,20.17
2023-05-14T19:47:22.019Z,18.35
2023-05-14T19:52:14.232Z,18.38
2023-05-14T19:57:06.738Z,17.95
2023-05-14T20:01:59.403Z,16.73
2023-05-14T20:06:53.128Z,15.20
2023-05-14T20:11:47.156Z,15.68
2023-05-14T20:16:40.250Z,16.13
2023-05-14T20:21:33.495Z,18.50
2023-05-14T20:26:29.302Z,13.52
2023-05-14T20:31:22.403Z,14.10
2023-05-14T20:36:15.617Z,10.75
2023-05-14T20:41:08.831Z,12.80
2023-05-14T20:46:02.732Z,12.38
2023-05-14T20:50:56.032Z,11.75
2023-05-14T20:55:49.320Z,10.10
2023-05-14T21:00:42.420Z,9.48
2023-05-14T21:05:35.598Z,11.50
2023-05-14T21:10:28.994Z,13.93
2023-05-14T21:15:23.018Z,11.10
2023-05-14T21:20:16.932Z,10.10
2023-05-14T21:25:11.667Z,11.27
2023-05-14T21:30:06.278Z,14.68
2023-05-14T21:34:59.294Z,16.90
2023-05-14T21:39:52.683Z,12.80
2023-05-14T21:44:46.213Z,14.57
2023-05-14T21:49:38.772Z,12.40
2023-05-14T21:54:31.276Z,12.68
2023-05-14T21:59:25.926Z,13.70
2023-05-14T22:04:19.274Z,10.63
2023-05-14T22:09:13.705Z,7.93
2023-05-14T22:14:06.754Z,10.68
2023-05-14T22:19:00.000Z,11.48
2023-05-14T22:23:53.646Z,9.25
2023-05-14T22:28:46.333Z,15.68
2023-05-14T22:33:39.815Z,9.85
2023-05-14T22:38:38.370Z,11.80
2023-05-14T22:43:31.760Z,10.52
2023-05-14T22:48:25.627Z,9.77
2023-05-14T22:53:18.569Z,10.15
2023-05-14T22:58:10.869Z,12.63
2023-05-14T23:03:03.052Z,10.20
2023-05-14T23:07:56.052Z,9.70
2023-05-14T23:12:50.061Z,12.60
2023-05-14T23:17:42.392Z,10.35
2023-05-14T23:22:35.359Z,9.00
2023-05-14T23:27:29.586Z,11.23
2023-05-14T23:32:22.872Z,10.05
2023-05-14T23:37:16.711Z,9.82
2023-05-14T23:42:09.840Z,11.57
2023-05-14T23:47:03.323Z,9.95
2023-05-14T23:51:57.475Z,7.57
2023-05-14T23:56:50.715Z,9.05
